createdAt,value
2019-04-07T00:00:42.671Z,37.75
2019-04-07T00:03:10.693Z,37.47
2019-04-07T00:05:38.171Z,40.33
2019-04-07T00:08:05.895Z,38.60
2019-04-07T00:10:33.435Z,39.37
2019-04-07T00:13:00.967Z,37.93
2019-04-07T00:15:29.015Z,39.73
2019-04-07T00:17:57.739Z,36.33
2019-04-07T00:20:25.371Z,39.60
2019-04-07T00:22:52.939Z,39.20
2019-04-07T00:25:21.756Z,42.40
2019-04-07T00:27:49.350Z,40.07
2019-04-07T00:30:16.934Z,41.50
2019-04-07T00:32:44.332Z,39.40
2019-04-07T00:35:22.113Z,39.37
2019-04-07T00:37:41.769Z,38.87
2019-04-07T00:40:09.624Z,44.93
2019-04-07T00:42:38.053Z,42.97
2019-04-07T00:45:08.712Z,41.50
2019-04-07T00:47:36.405Z,41.87
2019-04-07T00:50:04.708Z,41.80
2019-04-07T00:52:33.750Z,43.47
2019-04-07T00:55:01.547Z,42.53
2019-04-07T00:57:29.632Z,43.40
2019-04-07T00:59:57.841Z,39.53
2019-04-07T01:02:25.937Z,43.87
2019-04-07T01:04:53.722Z,43.23
2019-04-07T01:07:21.260Z,42.40
2019-04-07T01:09:48.736Z,44.20
2019-04-07T01:12:16.238Z,40.57
2019-04-07T01:14:44.243Z,42.03
2019-04-07T01:17:12.543Z,42.20
2019-04-07T01:19:40.699Z,46.23
2019-04-07T01:22:09.972Z,35.53
2019-04-07T01:24:37.980Z,40.63
2019-04-07T01:27:05.671Z,41.33
2019-04-07T01:29:33.289Z,42.00
2019-04-07T01:32:01.003Z,41.27
2019-04-07T01:34:29.018Z,39.70
2019-04-07T01:36:57.697Z,42.00
2019-04-07T01:39:25.974Z,39.23
2019-04-07T01:42:01.693Z,38.83
2019-04-07T01:44:39.773Z,36.63
2019-04-07T01:47:25.220Z,37.00
2019-04-07T01:50:10.953Z,39.93
2019-04-07T01:52:49.187Z,43.60
2019-04-07T01:55:36.400Z,41.13
2019-04-07T01:58:18.474Z,41.13
2019-04-07T02:01:00.313Z,42.47
2019-04-07T02:03:47.535Z,39.90
2019-04-07T02:06:37.589Z,47.67
2019-04-07T02:09:13.842Z,42.47
2019-04-07T02:12:06.960Z,38.83
2019-04-07T02:15:03.166Z,44.43
2019-04-07T02:18:05.089Z,43.67
2019-04-07T02:21:19.569Z,43.77
2019-04-07T02:24:22.323Z,41.17
2019-04-07T02:27:15.434Z,41.20
2019-04-07T02:30:03.705Z,36.90
2019-04-07T02:32:51.174Z,42.47
2019-04-07T02:35:33.299Z,38.63
2019-04-07T02:38:35.134Z,42.43
2019-04-07T02:41:38.613Z,39.70
2019-04-07T02:44:29.363Z,39.60
2019-04-07T02:47:08.417Z,50.80
2019-04-07T02:49:59.393Z,43.05
2019-04-07T02:52:50.442Z,43.87
2019-04-07T02:55:56.870Z,50.20
2019-04-07T02:58:44.333Z,43.73
2019-04-07T03:01:24.141Z,45.33
2019-04-07T03:04:11.689Z,41.03
2019-04-07T03:06:56.997Z,39.50
2019-04-07T03:10:02.917Z,47.50
2019-04-07T03:12:49.186Z,47.20
2019-04-07T03:15:48.472Z,45.73
2019-04-07T03:18:26.974Z,45.73
2019-04-07T03:21:13.097Z,45.60
2019-04-07T03:23:54.119Z,44.60
2019-04-07T03:26:56.199Z,48.23
2019-04-07T03:29:45.446Z,46.07
2019-04-07T03:32:49.316Z,48.83
2019-04-07T03:35:43.760Z,53.87
2019-04-07T03:38:31.559Z,49.77
2019-04-07T03:41:19.582Z,45.10
2019-04-07T03:44:03.330Z,51.93
2019-04-07T03:46:36.490Z,44.20
2019-04-07T03:49:12.213Z,40.80
2019-04-07T03:51:51.578Z,48.80
2019-04-07T03:54:45.144Z,45.90
2019-04-07T03:57:35.436Z,46.63
2019-04-07T04:00:23.037Z,46.70
2019-04-07T04:03:22.783Z,48.93
2019-04-07T04:06:04.752Z,46.57
2019-04-07T04:08:42.545Z,60.90
2019-04-07T04:11:18.599Z,50.07
2019-04-07T04:14:04.596Z,49.87
2019-04-07T04:16:37.681Z,53.30
2019-04-07T04:19:05.251Z,50.27
2019-04-07T04:21:33.252Z,54.43
2019-04-07T04:24:02.340Z,49.57
2019-04-07T04:26:29.763Z,53.73
2019-04-07T04:28:57.306Z,59.38
2019-04-07T04:31:25.457Z,60.10
2019-04-07T04:33:54.282Z,66.10
2019-04-07T04:36:22.540Z,58.83
2019-04-07T04:38:50.240Z,59.67
2019-04-07T04:41:19.053Z,57.37
2019-04-07T04:43:47.237Z,56.53
2019-04-07T04:46:15.121Z,59.70
2019-04-07T04:48:43.046Z,54.90
2019-04-07T04:51:10.687Z,54.53
2019-04-07T04:53:38.581Z,59.10
2019-04-07T04:56:06.104Z,60.70
2019-04-07T04:58:33.481Z,58.10
2019-04-07T05:01:04.520Z,58.47
2019-04-07T05:03:32.780Z,62.00
2019-04-07T05:06:01.397Z,56.47
2019-04-07T05:08:29.809Z,58.37
2019-04-07T05:10:57.616Z,62.13
2019-04-07T05:13:25.130Z,67.70
2019-04-07T05:15:52.737Z,66.80
2019-04-07T05:18:20.305Z,65.63
2019-04-07T05:20:47.868Z,57.10
2019-04-07T05:23:15.410Z,62.83
2019-04-07T05:25:42.890Z,61.63
2019-04-07T05:28:10.214Z,63.50
2019-04-07T05:30:38.006Z,60.57
2019-04-07T05:33:06.012Z,63.95
2019-04-07T05:35:34.176Z,65.17
2019-04-07T05:38:04.800Z,64.80
2019-04-07T05:40:31.846Z,58.97
2019-04-07T05:42:59.903Z,64.53
2019-04-07T05:45:27.971Z,49.43
2019-04-07T05:47:58.856Z,59.03
2019-04-07T05:50:28.688Z,63.20
2019-04-07T05:52:56.718Z,60.60
2019-04-07T05:55:24.520Z,52.50
2019-04-07T05:57:52.319Z,66.10
2019-04-07T06:00:20.747Z,60.13
2019-04-07T06:02:49.563Z,63.67
2019-04-07T06:05:17.792Z,59.10
2019-04-07T06:07:46.965Z,60.70
2019-04-07T06:10:15.454Z,59.73
2019-04-07T06:12:46.345Z,56.30
2019-04-07T06:15:12.888Z,56.03
2019-04-07T06:17:41.107Z,55.83
2019-04-07T06:20:11.761Z,56.10
2019-04-07T06:22:38.120Z,55.60
2019-04-07T06:25:07.083Z,52.67
2019-04-07T06:27:34.815Z,53.67
2019-04-07T06:30:02.779Z,51.60
2019-04-07T06:32:30.975Z,52.53
2019-04-07T06:34:59.373Z,50.57
2019-04-07T06:37:29.345Z,54.47
2019-04-07T06:39:57.733Z,54.40
2019-04-07T06:42:25.387Z,52.17
2019-04-07T06:44:52.923Z,50.73
2019-04-07T06:47:37.502Z,49.70
2019-04-07T06:50:47.570Z,47.17
2019-04-07T06:53:25.972Z,48.67
2019-04-07T06:56:19.704Z,48.40
2019-04-07T06:59:05.719Z,47.23
2019-04-07T07:01:45.928Z,44.37
2019-04-07T07:04:33.058Z,46.00
2019-04-07T07:07:19.202Z,45.47
2019-04-07T07:10:06.553Z,43.93
2019-04-07T07:12:48.090Z,44.60
2019-04-07T07:15:36.960Z,39.60
2019-04-07T07:18:14.182Z,39.27
2019-04-07T07:21:07.563Z,42.80
2019-04-07T07:23:39.666Z,40.50
2019-04-07T07:26:49.509Z,40.57
2019-04-07T07:29:19.032Z,40.20
2019-04-07T07:31:51.214Z,42.40
2019-04-07T07:34:17.660Z,38.83
2019-04-07T07:36:46.715Z,41.83
2019-04-07T07:39:15.022Z,40.53
2019-04-07T07:41:44.467Z,42.98
2019-04-07T07:44:12.383Z,35.67
2019-04-07T07:46:41.203Z,37.77
2019-04-07T07:49:08.965Z,35.03
2019-04-07T07:51:39.261Z,34.07
2019-04-07T07:54:06.172Z,35.17
2019-04-07T07:56:34.442Z,37.03
2019-04-07T07:59:02.594Z,34.03
2019-04-07T08:01:32.201Z,31.97
2019-04-07T08:04:00.803Z,33.57
2019-04-07T08:06:29.433Z,32.37
2019-04-07T08:09:07.438Z,30.13
2019-04-07T08:11:30.943Z,31.23
2019-04-07T08:13:59.719Z,32.37
2019-04-07T08:16:31.230Z,30.93
2019-04-07T08:19:16.774Z,31.93
2019-04-07T08:21:45.440Z,31.50
2019-04-07T08:24:18.585Z,31.63
2019-04-07T08:26:45.867Z,31.20
2019-04-07T08:29:13.888Z,32.63
2019-04-07T08:31:41.609Z,34.53
2019-04-07T08:34:09.886Z,33.40
2019-04-07T08:36:42.498Z,32.50
2019-04-07T08:39:19.636Z,32.83
2019-04-07T08:41:41.167Z,32.33
2019-04-07T08:44:07.171Z,33.03
2019-04-07T08:46:38.612Z,31.43
2019-04-07T08:49:04.747Z,32.23
2019-04-07T08:51:33.621Z,31.93
2019-04-07T08:54:04.155Z,31.63
2019-04-07T08:56:31.007Z,33.63
2019-04-07T08:59:01.124Z,33.53
2019-04-07T09:01:34.889Z,31.27
2019-04-07T09:04:02.854Z,35.93
2019-04-07T09:06:30.418Z,33.10
2019-04-07T09:09:05.902Z,33.53
2019-04-07T09:11:32.411Z,32.00
2019-04-07T09:14:02.128Z,32.58
2019-04-07T09:16:52.889Z,31.70
2019-04-07T09:19:28.869Z,30.80
2019-04-07T09:22:15.551Z,29.53
2019-04-07T09:25:06.361Z,29.73
2019-04-07T09:28:07.673Z,28.60
2019-04-07T09:31:03.124Z,30.20
2019-04-07T09:33:38.127Z,29.73
2019-04-07T09:36:23.437Z,29.50
2019-04-07T09:39:02.724Z,28.70
2019-04-07T09:41:45.641Z,27.97
2019-04-07T09:44:20.935Z,26.80
2019-04-07T09:46:56.354Z,24.50
2019-04-07T09:49:49.041Z,28.00
2019-04-07T09:52:37.080Z,23.73
2019-04-07T09:55:26.731Z,23.90
2019-04-07T09:58:03.206Z,23.07
2019-04-07T10:00:55.173Z,24.73
2019-04-07T10:03:56.321Z,19.67
2019-04-07T10:06:49.561Z,22.17
2019-04-07T10:09:34.047Z,22.00
2019-04-07T10:12:15.164Z,21.73
2019-04-07T10:15:02.866Z,22.97
2019-04-07T10:17:37.241Z,22.30
2019-04-07T10:20:32.571Z,21.10
2019-04-07T10:23:14.137Z,23.95
2019-04-07T10:26:01.271Z,22.77
2019-04-07T10:28:48.534Z,21.47
2019-04-07T10:31:38.854Z,21.87
2019-04-07T10:34:24.965Z,21.03
2019-04-07T10:37:12.011Z,21.93
2019-04-07T10:39:48.308Z,20.47
2019-04-07T10:42:41.286Z,20.57
2019-04-07T10:45:30.332Z,21.53
2019-04-07T10:48:17.932Z,21.37
2019-04-07T10:51:02.289Z,21.07
2019-04-07T10:54:02.756Z,20.20
2019-04-07T10:56:52.791Z,19.40
2019-04-07T10:59:30.707Z,19.95
2019-04-07T11:02:11.927Z,19.50
2019-04-07T11:05:09.524Z,19.67
2019-04-07T11:08:00.444Z,21.40
2019-04-07T11:10:46.677Z,18.60
2019-04-07T11:13:46.924Z,18.13
2019-04-07T11:16:33.779Z,17.53
2019-04-07T11:19:33.380Z,18.07
2019-04-07T11:22:20.579Z,20.57
2019-04-07T11:25:01.210Z,18.80
2019-04-07T11:27:57.269Z,31.80
2019-04-07T11:30:59.556Z,108.17
2019-04-07T11:33:35.059Z,19.47
2019-04-07T11:36:28.802Z,24.20
2019-04-07T11:39:05.835Z,18.13
2019-04-07T11:41:42.401Z,19.50
2019-04-07T11:44:33.897Z,74.47
2019-04-07T11:47:15.281Z,34.05
2019-04-07T11:50:00.369Z,19.57
2019-04-07T11:52:36.554Z,19.43
2019-04-07T11:55:12.233Z,20.17
2019-04-07T11:58:11.636Z,18.27
2019-04-07T12:00:48.801Z,17.63
2019-04-07T12:03:30.007Z,27.50
2019-04-07T12:06:14.351Z,16.73
2019-04-07T12:09:06.522Z,14.27
2019-04-07T12:11:50.438Z,15.50
2019-04-07T12:14:45.500Z,17.70
2019-04-07T12:17:30.261Z,17.50
2019-04-07T12:20:30.058Z,16.13
2019-04-07T12:23:23.376Z,16.67
2019-04-07T12:25:57.618Z,16.27
2019-04-07T12:28:49.982Z,14.83
2019-04-07T12:31:36.934Z,15.33
2019-04-07T12:34:33.278Z,16.30
2019-04-07T12:37:29.498Z,14.83
2019-04-07T12:40:32.370Z,16.20
2019-04-07T12:43:05.704Z,15.00
2019-04-07T12:46:07.940Z,15.63
2019-04-07T12:49:09.407Z,15.80
2019-04-07T12:51:44.802Z,16.12
2019-04-07T12:54:26.778Z,16.17
2019-04-07T12:57:20.894Z,16.73
2019-04-07T13:00:07.094Z,16.03
2019-04-07T13:02:57.512Z,17.33
2019-04-07T13:05:42.774Z,16.50
2019-04-07T13:08:29.191Z,16.17
2019-04-07T13:11:35.433Z,16.30
2019-04-07T13:14:29.502Z,15.03
2019-04-07T13:17:16.958Z,22.67
2019-04-07T13:20:08.363Z,15.47
2019-04-07T13:23:00.281Z,15.77
2019-04-07T13:25:47.468Z,16.10
2019-04-07T13:28:32.634Z,15.20
2019-04-07T13:31:31.906Z,15.57
2019-04-07T13:34:14.733Z,15.60
2019-04-07T13:36:54.163Z,15.55
2019-04-07T13:39:57.704Z,15.60
2019-04-07T13:42:44.418Z,18.23
2019-04-07T13:45:32.879Z,15.90
2019-04-07T13:48:32.385Z,15.00
2019-04-07T13:51:29.060Z,15.57
2019-04-07T13:54:32.975Z,16.37
2019-04-07T13:57:15.559Z,15.10
2019-04-07T14:00:15.913Z,15.80
2019-04-07T14:02:58.761Z,16.17
2019-04-07T14:05:33.198Z,13.40
2019-04-07T14:08:28.841Z,14.70
2019-04-07T14:11:21.974Z,15.37
2019-04-07T14:14:07.993Z,14.83
2019-04-07T14:17:07.320Z,16.60
2019-04-07T14:19:49.723Z,16.40
2019-04-07T14:22:42.121Z,15.80
2019-04-07T14:25:20.188Z,14.87
2019-04-07T14:28:02.499Z,14.73
2019-04-07T14:30:48.829Z,14.50
2019-04-07T14:33:36.955Z,16.37
2019-04-07T14:36:12.969Z,13.97
2019-04-07T14:38:45.616Z,13.90
2019-04-07T14:41:23.054Z,14.10
2019-04-07T14:44:12.893Z,14.17
2019-04-07T14:47:06.498Z,13.03
2019-04-07T14:50:00.461Z,13.90
2019-04-07T14:52:48.288Z,13.70
2019-04-07T14:55:32.258Z,14.73
2019-04-07T14:58:15.295Z,14.30
2019-04-07T15:01:04.627Z,13.60
2019-04-07T15:03:30.709Z,13.03
2019-04-07T15:05:59.568Z,13.32
2019-04-07T15:08:50.884Z,13.90
2019-04-07T15:11:36.896Z,14.33
2019-04-07T15:14:04.686Z,14.33
2019-04-07T15:16:32.866Z,15.17
2019-04-07T15:19:01.044Z,13.50
2019-04-07T15:21:30.180Z,14.93
2019-04-07T15:24:01.737Z,14.10
2019-04-07T15:26:27.177Z,13.77
2019-04-07T15:28:57.112Z,13.50
2019-04-07T15:31:24.957Z,14.00
2019-04-07T15:33:52.690Z,12.60
2019-04-07T15:36:21.080Z,12.85
2019-04-07T15:38:49.646Z,13.27
2019-04-07T15:41:19.076Z,12.87
2019-04-07T15:43:46.776Z,13.00
2019-04-07T15:46:16.618Z,14.07
2019-04-07T15:48:43.606Z,12.97
2019-04-07T15:51:13.281Z,14.23
2019-04-07T15:53:44.207Z,14.30
2019-04-07T15:56:13.135Z,13.50
2019-04-07T15:58:39.771Z,12.57
2019-04-07T16:01:09.385Z,13.10
2019-04-07T16:03:36.968Z,13.33
2019-04-07T16:06:05.682Z,12.83
2019-04-07T16:08:33.813Z,11.40
2019-04-07T16:11:01.909Z,17.27
2019-04-07T16:13:32.487Z,14.97
2019-04-07T16:16:00.195Z,15.30
2019-04-07T16:18:30.155Z,12.50
2019-04-07T16:20:57.761Z,13.93
2019-04-07T16:23:27.196Z,13.30
2019-04-07T16:25:58.407Z,14.80
2019-04-07T16:28:26.152Z,15.50
2019-04-07T16:30:54.256Z,15.53
2019-04-07T16:33:21.823Z,20.57
2019-04-07T16:35:54.006Z,14.93
2019-04-07T16:38:20.584Z,14.83
2019-04-07T16:40:49.041Z,16.30
2019-04-07T16:43:18.895Z,12.70
2019-04-07T16:45:47.179Z,23.37
2019-04-07T16:48:14.842Z,12.70
2019-04-07T16:50:42.649Z,15.37
2019-04-07T16:53:10.796Z,32.45
2019-04-07T16:55:41.714Z,69.53
2019-04-07T16:58:09.700Z,49.43
2019-04-07T17:00:38.394Z,14.00
2019-04-07T17:03:10.068Z,14.10
2019-04-07T17:05:38.090Z,13.90
2019-04-07T17:08:07.397Z,12.80
2019-04-07T17:10:35.418Z,13.47
2019-04-07T17:13:14.569Z,13.60
2019-04-07T17:15:37.340Z,13.13
2019-04-07T17:18:07.578Z,13.30
2019-04-07T17:20:37.685Z,13.10
2019-04-07T17:23:05.129Z,13.87
2019-04-07T17:25:34.610Z,12.57
2019-04-07T17:28:04.051Z,13.40
2019-04-07T17:30:32.872Z,15.50
2019-04-07T17:33:03.229Z,13.03
2019-04-07T17:35:32.820Z,12.90
2019-04-07T17:38:05.385Z,12.30
2019-04-07T17:40:35.369Z,13.07
2019-04-07T17:43:28.870Z,13.10
2019-04-07T17:46:24.845Z,14.23
2019-04-07T17:48:58.370Z,13.05
2019-04-07T17:51:36.314Z,12.40
2019-04-07T17:54:22.994Z,12.77
2019-04-07T17:57:13.359Z,13.93
2019-04-07T18:00:06.248Z,11.67
2019-04-07T18:03:05.277Z,12.40
2019-04-07T18:06:04.261Z,12.87
2019-04-07T18:08:45.857Z,12.93
2019-04-07T18:11:33.942Z,12.80
2019-04-07T18:14:12.672Z,13.07
2019-04-07T18:17:02.815Z,12.57
2019-04-07T18:19:50.521Z,14.57
2019-04-07T18:22:39.094Z,11.23
2019-04-07T18:25:33.289Z,13.27
2019-04-07T18:28:12.188Z,11.33
2019-04-07T18:31:03.010Z,11.73
2019-04-07T18:34:04.706Z,14.17
2019-04-07T18:36:40.605Z,15.63
2019-04-07T18:39:37.077Z,20.02
2019-04-07T18:42:20.894Z,18.90
2019-04-07T18:44:57.474Z,16.32
2019-04-07T18:47:47.183Z,11.40
2019-04-07T18:50:45.454Z,14.10
2019-04-07T18:53:31.881Z,14.50
2019-04-07T18:56:28.094Z,13.27
2019-04-07T18:59:35.785Z,13.33
2019-04-07T19:02:22.853Z,13.97
2019-04-07T19:05:10.500Z,13.13
2019-04-07T19:07:52.869Z,13.48
2019-04-07T19:10:38.941Z,12.90
2019-04-07T19:13:35.827Z,13.53
2019-04-07T19:16:27.768Z,16.00
2019-04-07T19:19:27.774Z,16.20
2019-04-07T19:22:09.414Z,16.30
2019-04-07T19:24:47.497Z,16.03
2019-04-07T19:27:33.340Z,16.20
2019-04-07T19:30:20.569Z,16.90
2019-04-07T19:33:07.866Z,17.60
2019-04-07T19:35:44.655Z,17.80
2019-04-07T19:38:30.097Z,18.87
2019-04-07T19:41:20.200Z,16.73
2019-04-07T19:43:56.529Z,17.85
2019-04-07T19:46:44.134Z,18.77
2019-04-07T19:49:22.898Z,16.77
2019-04-07T19:52:09.469Z,16.63
2019-04-07T19:54:48.672Z,18.10
2019-04-07T19:57:27.894Z,16.77
2019-04-07T20:00:25.788Z,17.20
2019-04-07T20:03:15.791Z,17.37
2019-04-07T20:05:58.503Z,17.10
2019-04-07T20:08:41.645Z,17.03
2019-04-07T20:11:38.959Z,16.67
2019-04-07T20:14:22.769Z,20.07
2019-04-07T20:17:06.244Z,18.57
2019-04-07T20:19:53.621Z,16.77
2019-04-07T20:22:49.359Z,18.50
2019-04-07T20:25:28.705Z,17.93
2019-04-07T20:28:03.981Z,18.37
2019-04-07T20:31:09.234Z,16.83
2019-04-07T20:33:56.892Z,19.67
2019-04-07T20:36:42.583Z,18.43
2019-04-07T20:39:15.792Z,17.37
2019-04-07T20:42:01.462Z,16.00
2019-04-07T20:44:44.829Z,19.15
2019-04-07T20:47:36.207Z,16.53
2019-04-07T20:50:22.086Z,19.35
2019-04-07T20:53:19.551Z,21.23
2019-04-07T20:56:03.983Z,18.13
2019-04-07T20:58:53.780Z,24.40
2019-04-07T21:01:38.688Z,21.13
2019-04-07T21:04:28.728Z,19.03
2019-04-07T21:07:05.531Z,20.30
2019-04-07T21:09:38.554Z,20.53
2019-04-07T21:12:21.088Z,21.73
2019-04-07T21:15:16.898Z,20.30
2019-04-07T21:17:38.336Z,19.53
2019-04-07T21:20:29.966Z,17.50
2019-04-07T21:23:18.621Z,19.57
2019-04-07T21:26:12.255Z,23.93
2019-04-07T21:28:52.506Z,18.83
2019-04-07T21:31:46.547Z,20.53
2019-04-07T21:34:32.384Z,21.57
2019-04-07T21:37:13.300Z,21.27
2019-04-07T21:39:56.800Z,21.83
2019-04-07T21:42:38.886Z,22.00
2019-04-07T21:45:33.025Z,25.63
2019-04-07T21:48:07.180Z,20.27
2019-04-07T21:50:50.493Z,23.03
2019-04-07T21:53:30.454Z,23.00
2019-04-07T21:56:14.384Z,22.07
2019-04-07T21:58:51.953Z,20.57
2019-04-07T22:01:41.176Z,23.42
2019-04-07T22:04:34.295Z,23.13
2019-04-07T22:07:37.530Z,21.67
2019-04-07T22:10:06.108Z,22.33
2019-04-07T22:12:33.995Z,20.43
2019-04-07T22:15:02.431Z,23.50
2019-04-07T22:17:34.261Z,23.40
2019-04-07T22:20:01.123Z,22.10
2019-04-07T22:22:29.079Z,21.90
2019-04-07T22:24:58.018Z,23.23
2019-04-07T22:27:27.291Z,22.63
2019-04-07T22:29:59.547Z,22.17
2019-04-07T22:32:26.886Z,23.03
2019-04-07T22:34:55.895Z,21.47
2019-04-07T22:37:23.542Z,23.63
2019-04-07T22:39:51.108Z,22.95
2019-04-07T22:42:19.269Z,21.83
2019-04-07T22:44:47.377Z,23.63
2019-04-07T22:47:15.920Z,29.97
2019-04-07T22:49:45.076Z,20.20
2019-04-07T22:52:16.003Z,21.80
2019-04-07T22:54:42.242Z,24.03
2019-04-07T22:57:13.853Z,24.07
2019-04-07T22:59:39.843Z,24.40
2019-04-07T23:02:07.567Z,25.43
2019-04-07T23:04:36.399Z,24.63
2019-04-07T23:07:04.367Z,25.13
2019-04-07T23:09:32.099Z,24.40
2019-04-07T23:12:01.587Z,25.60
2019-04-07T23:14:29.454Z,22.80
2019-04-07T23:16:57.030Z,25.27
2019-04-07T23:19:24.924Z,23.40
2019-04-07T23:21:53.430Z,26.70
2019-04-07T23:24:21.358Z,26.50
2019-04-07T23:26:48.950Z,23.40
2019-04-07T23:29:16.501Z,26.23
2019-04-07T23:31:44.189Z,26.77
2019-04-07T23:34:11.735Z,26.37
2019-04-07T23:36:39.222Z,25.50
2019-04-07T23:39:06.850Z,24.50
2019-04-07T23:41:35.164Z,24.00
2019-04-07T23:44:03.212Z,25.80
2019-04-07T23:46:31.641Z,26.87
2019-04-07T23:48:59.988Z,26.90
2019-04-07T23:51:28.781Z,23.50
2019-04-07T23:54:12.207Z,24.87
2019-04-07T23:56:41.662Z,26.00
2019-04-07T23:59:10.360Z,28.30
